Terminal Aerodrome Forecast
Issued by NWS Cleveland, OH

Home | Current Version | Previous Version | Graphics & Text | Print | Product List | Glossary On
Versions: 1 2 3 4 5 6 7 8 9 10 11 12 13 14 15 16 17 18 19 20 21 22 23
000
FTUS41 KCLE 231200 AAA
TAFERI
TAF AMD
KERI 231221Z 2312/2412 04008KT 3SM BR BKN004
     FM231400 04008KT 6SM BR BKN010
     FM231500 04008KT P6SM BKN022
     FM231700 04010KT P6SM SCT035
     FM240500 12005KT 6SM BR SCT040
     FM240900 14005KT 4SM BR SCT010=

USA.gov is the U.S. government's official web portal to all federal, state and local government web resources and services.